createdAt,value
2018-12-20T00:00:44.041Z,69.40
2018-12-20T00:03:11.517Z,69.50
2018-12-20T00:05:39.025Z,69.40
2018-12-20T00:08:06.538Z,69.50
2018-12-20T00:10:34.099Z,69.70
2018-12-20T00:13:01.548Z,69.80
2018-12-20T00:15:29.014Z,69.70
2018-12-20T00:17:56.509Z,69.90
2018-12-20T00:20:23.950Z,70.00
2018-12-20T00:22:51.463Z,70.00
2018-12-20T00:25:18.936Z,70.00
2018-12-20T00:27:46.506Z,70.00
2018-12-20T00:30:14.027Z,70.00
2018-12-20T00:32:41.529Z,70.00
2018-12-20T00:35:09.183Z,70.00
2018-12-20T00:37:36.674Z,69.90
2018-12-20T00:40:06.600Z,70.00
2018-12-20T00:42:34.299Z,70.00
2018-12-20T00:45:01.985Z,70.00
2018-12-20T00:47:29.545Z,70.00
2018-12-20T00:49:57.054Z,70.00
2018-12-20T00:52:24.586Z,70.00
2018-12-20T00:54:52.052Z,70.00
2018-12-20T00:57:19.616Z,70.10
2018-12-20T00:59:47.102Z,70.00
2018-12-20T01:02:14.583Z,70.00
2018-12-20T01:04:42.131Z,69.90
2018-12-20T01:07:09.644Z,69.90
2018-12-20T01:09:37.127Z,70.70
2018-12-20T01:12:04.821Z,70.00
2018-12-20T01:14:32.353Z,69.90
2018-12-20T01:16:59.811Z,69.90
2018-12-20T01:19:27.285Z,69.90
2018-12-20T01:21:54.787Z,69.90
2018-12-20T01:24:22.237Z,70.00
2018-12-20T01:26:49.811Z,70.20
2018-12-20T01:29:17.378Z,71.20
2018-12-20T01:31:44.831Z,71.20
2018-12-20T01:34:12.255Z,71.20
2018-12-20T01:36:39.879Z,71.60
2018-12-20T01:39:07.432Z,71.60
2018-12-20T01:41:34.888Z,71.60
2018-12-20T01:44:02.445Z,71.70
2018-12-20T01:46:29.935Z,71.70
2018-12-20T01:48:57.493Z,71.80
2018-12-20T01:51:25.031Z,71.80
2018-12-20T01:53:52.482Z,71.90
2018-12-20T01:56:20.077Z,71.80
2018-12-20T01:58:47.632Z,71.90
2018-12-20T02:01:15.281Z,71.80
2018-12-20T02:03:42.888Z,71.90
2018-12-20T02:06:10.384Z,71.90
2018-12-20T02:08:37.919Z,71.80
2018-12-20T02:11:05.537Z,72.00
2018-12-20T02:13:33.072Z,72.00
2018-12-20T02:16:00.848Z,72.30
2018-12-20T02:18:28.286Z,72.30
2018-12-20T02:20:55.707Z,72.20
2018-12-20T02:23:23.269Z,72.10
2018-12-20T02:25:50.814Z,72.40
2018-12-20T02:28:18.335Z,72.20
2018-12-20T02:30:45.858Z,72.10
2018-12-20T02:33:13.301Z,72.70
2018-12-20T02:35:40.794Z,72.30
2018-12-20T02:38:08.321Z,72.20
2018-12-20T02:40:35.903Z,72.20
2018-12-20T02:43:03.429Z,72.10
2018-12-20T02:45:30.954Z,72.00
2018-12-20T02:47:58.492Z,72.10
2018-12-20T02:50:25.915Z,72.00
2018-12-20T02:52:53.351Z,72.20
2018-12-20T02:55:20.862Z,72.20
2018-12-20T02:57:48.359Z,72.30
2018-12-20T03:00:15.913Z,72.40
2018-12-20T03:02:43.505Z,72.20
2018-12-20T03:05:11.074Z,72.20
2018-12-20T03:07:38.686Z,72.20
2018-12-20T03:10:06.308Z,72.10
2018-12-20T03:12:33.825Z,72.10
2018-12-20T03:15:01.349Z,72.20
2018-12-20T03:17:28.970Z,72.30
2018-12-20T03:19:56.593Z,72.30
2018-12-20T03:22:24.367Z,72.20
2018-12-20T03:24:52.008Z,72.10
2018-12-20T03:27:19.504Z,72.30
2018-12-20T03:29:47.050Z,72.10
2018-12-20T03:32:14.496Z,72.20
2018-12-20T03:34:42.170Z,72.30
2018-12-20T03:37:09.773Z,72.20
2018-12-20T03:39:37.370Z,72.10
2018-12-20T03:42:04.947Z,72.20
2018-12-20T03:44:33.365Z,72.20
2018-12-20T03:47:01.066Z,72.10
2018-12-20T03:49:28.715Z,72.20
2018-12-20T03:51:56.326Z,72.20
2018-12-20T03:54:23.811Z,72.10
2018-12-20T03:56:51.366Z,72.20
2018-12-20T03:59:18.873Z,72.20
2018-12-20T04:01:46.442Z,72.10
2018-12-20T04:04:14.162Z,72.20
2018-12-20T04:06:41.651Z,72.40
2018-12-20T04:09:09.528Z,73.10
2018-12-20T04:11:37.018Z,72.20
2018-12-20T04:14:04.642Z,72.30
2018-12-20T04:16:32.208Z,72.40
2018-12-20T04:18:59.757Z,72.70
2018-12-20T04:21:27.373Z,72.60
2018-12-20T04:23:54.892Z,72.50
2018-12-20T04:26:22.331Z,72.50
2018-12-20T04:28:49.787Z,72.70
2018-12-20T04:31:17.216Z,72.90
2018-12-20T04:33:44.669Z,72.80
2018-12-20T04:36:12.227Z,72.80
2018-12-20T04:38:39.814Z,72.80
2018-12-20T04:41:07.329Z,72.70
2018-12-20T04:43:34.776Z,72.70
2018-12-20T04:46:02.363Z,72.50
2018-12-20T04:48:29.869Z,72.60
2018-12-20T04:50:57.562Z,72.60
2018-12-20T04:53:25.344Z,72.60
2018-12-20T04:55:52.988Z,72.60
2018-12-20T04:58:20.540Z,72.50
2018-12-20T05:00:48.018Z,72.60
2018-12-20T05:03:15.676Z,72.60
2018-12-20T05:05:43.218Z,72.50
2018-12-20T05:08:10.927Z,72.40
2018-12-20T05:10:38.699Z,72.40
2018-12-20T05:13:06.440Z,72.60
2018-12-20T05:15:33.949Z,72.80
2018-12-20T05:18:01.392Z,72.80
2018-12-20T05:20:28.896Z,73.00
2018-12-20T05:22:56.353Z,72.90
2018-12-20T05:25:23.840Z,73.00
2018-12-20T05:27:51.454Z,73.10
2018-12-20T05:30:19.010Z,72.90
2018-12-20T05:32:46.651Z,72.80
2018-12-20T05:35:14.156Z,73.10
2018-12-20T05:37:41.695Z,73.00
2018-12-20T05:40:09.351Z,72.80
2018-12-20T05:42:37.029Z,71.90
2018-12-20T05:45:04.796Z,71.90
2018-12-20T05:47:32.368Z,71.70
2018-12-20T05:50:00.139Z,71.90
2018-12-20T05:52:27.763Z,72.10
2018-12-20T05:54:55.288Z,72.10
2018-12-20T05:57:22.733Z,71.30
2018-12-20T05:59:50.271Z,72.00
2018-12-20T06:02:17.761Z,71.80
2018-12-20T06:04:45.423Z,71.80
2018-12-20T06:07:12.959Z,71.90
2018-12-20T06:09:40.527Z,71.80
2018-12-20T06:12:08.030Z,71.90
2018-12-20T06:14:35.518Z,72.00
2018-12-20T06:17:03.195Z,71.90
2018-12-20T06:19:30.799Z,72.00
2018-12-20T06:21:58.378Z,72.10
2018-12-20T06:24:25.913Z,72.20
2018-12-20T06:26:53.349Z,72.20
2018-12-20T06:29:20.812Z,72.50
2018-12-20T06:31:48.315Z,71.70
2018-12-20T06:34:15.777Z,72.40
2018-12-20T06:36:43.202Z,72.40
2018-12-20T06:39:10.639Z,72.50
2018-12-20T06:41:40.031Z,72.70
2018-12-20T06:44:07.535Z,72.60
2018-12-20T06:46:36.972Z,72.80
2018-12-20T06:49:04.470Z,73.00
2018-12-20T06:51:31.915Z,73.00
2018-12-20T06:53:59.372Z,73.00
2018-12-20T06:56:26.840Z,72.90
2018-12-20T06:58:54.422Z,73.00
2018-12-20T07:01:21.932Z,73.10
2018-12-20T07:03:49.496Z,73.20
2018-12-20T07:06:17.029Z,73.20
2018-12-20T07:08:44.495Z,73.30
2018-12-20T07:11:11.962Z,73.30
2018-12-20T07:13:39.503Z,73.30
2018-12-20T07:16:06.960Z,73.40
2018-12-20T07:18:34.399Z,73.40
2018-12-20T07:21:01.855Z,73.50
2018-12-20T07:23:29.302Z,73.50
2018-12-20T07:25:56.762Z,73.40
2018-12-20T07:28:24.227Z,73.50
2018-12-20T07:30:51.674Z,73.20
2018-12-20T07:33:19.152Z,73.20
2018-12-20T07:35:46.640Z,73.20
2018-12-20T07:38:14.141Z,73.10
2018-12-20T07:40:41.721Z,73.20
2018-12-20T07:43:09.169Z,73.10
2018-12-20T07:45:36.614Z,73.10
2018-12-20T07:48:04.137Z,73.00
2018-12-20T07:50:31.585Z,72.80
2018-12-20T07:52:59.015Z,72.80
2018-12-20T07:55:26.458Z,72.60
2018-12-20T07:57:53.892Z,72.80
2018-12-20T08:00:21.327Z,72.80
2018-12-20T08:02:48.777Z,72.70
2018-12-20T08:05:16.393Z,72.70
2018-12-20T08:07:43.834Z,72.50
2018-12-20T08:10:11.294Z,73.10
2018-12-20T08:12:38.714Z,73.00
2018-12-20T08:15:06.154Z,73.10
2018-12-20T08:17:33.593Z,72.40
2018-12-20T08:20:01.040Z,72.50
2018-12-20T08:22:28.478Z,72.70
2018-12-20T08:24:55.919Z,72.30
2018-12-20T08:27:23.597Z,71.70
2018-12-20T08:29:51.040Z,71.70
2018-12-20T08:32:18.472Z,71.70
2018-12-20T08:34:45.914Z,71.70
2018-12-20T08:37:13.373Z,71.80
2018-12-20T08:39:40.809Z,71.60
2018-12-20T08:42:08.256Z,71.70
2018-12-20T08:44:35.688Z,71.50
2018-12-20T08:47:03.140Z,71.50
2018-12-20T08:49:30.734Z,71.30
2018-12-20T08:51:58.263Z,71.10
2018-12-20T08:54:25.797Z,71.20
2018-12-20T08:56:53.250Z,71.40
2018-12-20T08:59:20.689Z,71.50
2018-12-20T09:01:48.179Z,71.20
2018-12-20T09:04:15.627Z,70.90
2018-12-20T09:06:43.095Z,71.20
2018-12-20T09:09:10.568Z,71.20
2018-12-20T09:11:38.003Z,70.90
2018-12-20T09:14:05.454Z,71.00
2018-12-20T09:16:32.908Z,71.20
2018-12-20T09:19:00.379Z,71.20
2018-12-20T09:21:27.835Z,71.50
2018-12-20T09:23:55.334Z,71.60
2018-12-20T09:26:22.823Z,71.70
2018-12-20T09:28:50.267Z,71.70
2018-12-20T09:31:17.692Z,71.70
2018-12-20T09:33:45.140Z,71.50
2018-12-20T09:36:12.576Z,71.50
2018-12-20T09:38:40.020Z,71.60
2018-12-20T09:41:07.514Z,71.40
2018-12-20T09:43:35.052Z,71.50
2018-12-20T09:46:02.500Z,72.10
2018-12-20T09:48:29.964Z,71.20
2018-12-20T09:50:57.416Z,71.20
2018-12-20T09:53:24.867Z,71.00
2018-12-20T09:55:52.322Z,71.00
2018-12-20T09:58:19.865Z,71.00
2018-12-20T10:00:47.315Z,70.90
2018-12-20T10:03:14.779Z,70.80
2018-12-20T10:05:42.206Z,70.80
2018-12-20T10:08:09.633Z,71.10
2018-12-20T10:10:37.074Z,71.70
2018-12-20T10:13:04.546Z,70.90
2018-12-20T10:15:32.008Z,70.40
2018-12-20T10:17:59.460Z,70.20
2018-12-20T10:20:26.948Z,69.80
2018-12-20T10:22:54.400Z,69.50
2018-12-20T10:25:21.914Z,69.90
2018-12-20T10:27:49.409Z,70.40
2018-12-20T10:30:16.835Z,70.90
2018-12-20T10:32:44.308Z,70.50
2018-12-20T10:35:11.747Z,69.00
2018-12-20T10:37:39.204Z,67.60
2018-12-20T10:40:07.476Z,66.50
2018-12-20T10:42:34.957Z,65.60
2018-12-20T10:45:02.459Z,64.90
2018-12-20T10:47:29.915Z,64.40
2018-12-20T10:49:57.374Z,64.40
2018-12-20T10:52:24.831Z,64.70
2018-12-20T10:54:52.289Z,64.50
2018-12-20T10:57:19.760Z,64.30
2018-12-20T10:59:47.256Z,64.60
2018-12-20T11:02:20.555Z,65.40
2018-12-20T11:04:53.593Z,64.70
2018-12-20T11:07:26.871Z,65.00
2018-12-20T11:10:00.167Z,64.90
2018-12-20T11:12:29.541Z,65.30
2018-12-20T11:14:57.035Z,65.50
2018-12-20T11:17:24.551Z,65.50
2018-12-20T11:19:51.984Z,65.80
2018-12-20T11:22:19.423Z,65.70
2018-12-20T11:24:46.958Z,65.80
2018-12-20T11:27:14.403Z,66.20
2018-12-20T11:29:41.882Z,65.90
2018-12-20T11:32:09.436Z,66.20
2018-12-20T11:34:36.868Z,66.10
2018-12-20T11:37:04.318Z,67.00
2018-12-20T11:39:31.756Z,66.50
2018-12-20T11:41:59.184Z,66.20
2018-12-20T11:44:26.645Z,66.40
2018-12-20T11:46:54.103Z,66.20
2018-12-20T11:49:21.572Z,66.30
2018-12-20T11:51:49.028Z,66.40
2018-12-20T11:54:16.510Z,66.60
2018-12-20T11:56:43.937Z,66.60
2018-12-20T11:59:11.407Z,66.50
2018-12-20T12:01:38.873Z,66.70
2018-12-20T12:04:06.409Z,66.90
2018-12-20T12:06:33.931Z,67.20
2018-12-20T12:09:01.374Z,68.40
2018-12-20T12:11:28.814Z,67.90
2018-12-20T12:13:56.335Z,68.10
2018-12-20T12:16:23.777Z,68.10
2018-12-20T12:18:51.232Z,68.20
2018-12-20T12:21:18.685Z,68.30
2018-12-20T12:23:46.128Z,68.10
2018-12-20T12:26:13.581Z,68.00
2018-12-20T12:28:41.039Z,68.10
2018-12-20T12:31:08.489Z,68.20
2018-12-20T12:33:35.947Z,68.10
2018-12-20T12:36:03.377Z,68.10
2018-12-20T12:38:30.836Z,68.10
2018-12-20T12:40:58.279Z,67.90
2018-12-20T12:43:25.716Z,67.90
2018-12-20T12:45:53.149Z,67.80
2018-12-20T12:48:20.818Z,67.70
2018-12-20T12:50:48.255Z,67.70
2018-12-20T12:53:15.783Z,67.60
2018-12-20T12:55:43.230Z,67.60
2018-12-20T12:58:10.722Z,67.40
2018-12-20T13:00:38.180Z,67.30
2018-12-20T13:03:05.613Z,67.10
2018-12-20T13:05:33.070Z,67.20
2018-12-20T13:08:00.605Z,67.10
2018-12-20T13:10:28.049Z,67.00
2018-12-20T13:12:55.494Z,67.10
2018-12-20T13:15:22.939Z,67.10
2018-12-20T13:17:50.380Z,67.00
2018-12-20T13:20:17.913Z,66.80
2018-12-20T13:22:45.365Z,66.70
2018-12-20T13:25:12.811Z,66.70
2018-12-20T13:27:40.247Z,66.60
2018-12-20T13:30:09.471Z,66.60
2018-12-20T13:32:36.988Z,66.40
2018-12-20T13:35:04.462Z,66.40
2018-12-20T13:37:31.920Z,66.60
2018-12-20T13:39:59.436Z,66.10
2018-12-20T13:42:26.871Z,66.40
2018-12-20T13:44:54.321Z,66.30
2018-12-20T13:47:21.772Z,66.80
2018-12-20T13:49:49.199Z,67.10
2018-12-20T13:52:16.637Z,67.60
2018-12-20T13:54:44.083Z,67.80
2018-12-20T13:57:11.519Z,68.00
2018-12-20T13:59:38.957Z,68.60
2018-12-20T14:02:06.398Z,68.90
2018-12-20T14:04:33.861Z,69.30
2018-12-20T14:07:01.299Z,69.50
2018-12-20T14:09:28.762Z,69.70
2018-12-20T14:11:56.192Z,69.80
2018-12-20T14:14:23.628Z,69.90
2018-12-20T14:16:51.084Z,70.60
2018-12-20T14:19:18.519Z,70.30
2018-12-20T14:21:46.005Z,70.10
2018-12-20T14:24:13.457Z,70.40
2018-12-20T14:26:41.235Z,70.50
2018-12-20T14:29:08.716Z,70.60
2018-12-20T14:31:36.153Z,70.10
2018-12-20T14:34:03.620Z,69.90
2018-12-20T14:36:31.069Z,70.00
2018-12-20T14:38:58.531Z,70.10
2018-12-20T14:41:25.960Z,69.90
2018-12-20T14:43:53.402Z,70.00
2018-12-20T14:46:20.852Z,69.70
2018-12-20T14:48:48.389Z,70.00
2018-12-20T14:51:15.835Z,70.10
2018-12-20T14:53:43.315Z,70.00
2018-12-20T14:56:10.751Z,70.60
2018-12-20T14:58:38.207Z,69.90
2018-12-20T15:01:05.719Z,69.70
2018-12-20T15:03:33.165Z,69.60
2018-12-20T15:06:00.608Z,69.60
2018-12-20T15:08:28.072Z,69.80
2018-12-20T15:10:55.512Z,70.00
2018-12-20T15:13:22.972Z,70.00
2018-12-20T15:15:50.403Z,70.40
2018-12-20T15:18:17.831Z,70.50
2018-12-20T15:20:45.308Z,71.80
2018-12-20T15:23:12.786Z,71.70
2018-12-20T15:25:40.350Z,71.80
2018-12-20T15:28:07.806Z,72.10
2018-12-20T15:30:35.281Z,72.30
2018-12-20T15:33:02.704Z,72.30
2018-12-20T15:35:30.155Z,72.40
2018-12-20T15:37:57.644Z,72.30
2018-12-20T15:40:26.133Z,72.40
2018-12-20T15:42:53.557Z,72.60
2018-12-20T15:45:20.987Z,73.00
2018-12-20T15:47:48.437Z,73.00
2018-12-20T15:50:16.109Z,73.10
2018-12-20T15:52:43.673Z,72.90
2018-12-20T15:55:11.206Z,73.00
2018-12-20T15:57:38.660Z,73.10
2018-12-20T16:00:07.983Z,73.20
2018-12-20T16:02:35.525Z,73.00
2018-12-20T16:05:03.004Z,73.20
2018-12-20T16:07:30.538Z,73.20
2018-12-20T16:09:57.978Z,73.30
2018-12-20T16:12:26.738Z,73.70
2018-12-20T16:14:54.177Z,73.60
2018-12-20T16:17:21.637Z,73.60
2018-12-20T16:19:49.083Z,73.90
2018-12-20T16:22:16.557Z,74.10
2018-12-20T16:24:44.003Z,74.10
2018-12-20T16:27:11.543Z,74.20
2018-12-20T16:29:39.012Z,74.20
2018-12-20T16:32:06.458Z,74.10
2018-12-20T16:34:33.894Z,74.40
2018-12-20T16:37:01.376Z,74.70
2018-12-20T16:39:28.817Z,74.50
2018-12-20T16:41:56.282Z,74.80
2018-12-20T16:44:24.631Z,74.80
2018-12-20T16:46:52.075Z,75.20
2018-12-20T16:49:19.600Z,75.10
2018-12-20T16:51:47.035Z,75.20
2018-12-20T16:54:14.498Z,75.40
2018-12-20T16:56:41.956Z,75.70
2018-12-20T16:59:09.406Z,75.40
2018-12-20T17:01:36.879Z,75.50
2018-12-20T17:04:04.343Z,75.80
2018-12-20T17:06:31.806Z,75.80
2018-12-20T17:08:59.263Z,75.80
2018-12-20T17:11:26.876Z,75.80
2018-12-20T17:13:54.353Z,76.00
2018-12-20T17:16:21.782Z,76.10
2018-12-20T17:18:49.233Z,76.00
2018-12-20T17:21:16.947Z,76.20
2018-12-20T17:23:44.526Z,76.40
2018-12-20T17:26:11.972Z,76.20
2018-12-20T17:28:39.416Z,76.40
2018-12-20T17:31:06.861Z,76.20
2018-12-20T17:33:34.331Z,77.10
2018-12-20T17:36:01.781Z,76.60
2018-12-20T17:38:29.233Z,76.60
2018-12-20T17:40:56.686Z,76.50
2018-12-20T17:43:24.269Z,76.20
2018-12-20T17:45:51.703Z,76.70
2018-12-20T17:48:19.160Z,76.70
2018-12-20T17:50:46.600Z,76.40
2018-12-20T17:53:14.068Z,76.50
2018-12-20T17:55:44.910Z,76.50
2018-12-20T17:58:10.931Z,76.70
2018-12-20T18:00:38.393Z,76.60
2018-12-20T18:03:05.868Z,76.40
2018-12-20T18:05:33.282Z,76.40
2018-12-20T18:08:00.747Z,76.70
2018-12-20T18:10:28.184Z,76.50
2018-12-20T18:12:55.642Z,76.70
2018-12-20T18:15:23.116Z,76.60
2018-12-20T18:17:50.587Z,76.70
2018-12-20T18:20:18.028Z,76.70
2018-12-20T18:22:45.496Z,77.00
2018-12-20T18:25:12.950Z,76.60
2018-12-20T18:27:40.416Z,76.80
2018-12-20T18:30:09.335Z,76.70
2018-12-20T18:32:36.868Z,77.00
2018-12-20T18:35:04.317Z,76.70
2018-12-20T18:37:31.760Z,76.50
2018-12-20T18:39:59.220Z,76.70
2018-12-20T18:42:26.693Z,76.50
2018-12-20T18:44:54.150Z,76.60
2018-12-20T18:47:21.658Z,76.60
2018-12-20T18:49:49.092Z,77.40
2018-12-20T18:52:16.540Z,76.50
2018-12-20T18:54:43.997Z,76.40
2018-12-20T18:57:11.459Z,76.40
2018-12-20T18:59:38.901Z,76.50
2018-12-20T19:02:06.332Z,76.60
2018-12-20T19:04:33.801Z,76.50
2018-12-20T19:07:01.231Z,76.80
2018-12-20T19:09:28.792Z,76.60
2018-12-20T19:11:56.240Z,76.70
2018-12-20T19:14:23.709Z,76.70
2018-12-20T19:16:51.190Z,76.90
2018-12-20T19:19:18.685Z,77.20
2018-12-20T19:21:46.114Z,77.30
2018-12-20T19:24:13.582Z,77.30
2018-12-20T19:26:41.016Z,77.20
2018-12-20T19:29:08.476Z,77.20
2018-12-20T19:31:36.010Z,77.50
2018-12-20T19:34:03.458Z,77.50
2018-12-20T19:36:30.899Z,77.20
2018-12-20T19:38:58.367Z,77.10
2018-12-20T19:41:25.823Z,77.00
2018-12-20T19:43:53.287Z,77.10
2018-12-20T19:46:20.729Z,77.10
2018-12-20T19:48:48.193Z,77.00
2018-12-20T19:51:15.874Z,77.30
2018-12-20T19:53:43.327Z,77.00
2018-12-20T19:56:10.797Z,77.20
2018-12-20T19:58:38.252Z,77.00
2018-12-20T20:01:05.960Z,77.20
2018-12-20T20:03:33.456Z,77.10
2018-12-20T20:06:00.950Z,77.10
2018-12-20T20:08:28.415Z,77.20
2018-12-20T20:10:55.910Z,77.10
2018-12-20T20:13:30.743Z,77.00
2018-12-20T20:15:52.958Z,77.00
2018-12-20T20:18:20.452Z,77.00
2018-12-20T20:20:48.158Z,76.90
2018-12-20T20:23:15.794Z,76.80
2018-12-20T20:25:45.510Z,76.80
2018-12-20T20:28:13.021Z,76.60
2018-12-20T20:30:41.301Z,76.70
2018-12-20T20:33:09.009Z,76.40
2018-12-20T20:35:36.528Z,76.60
2018-12-20T20:38:04.039Z,76.70
2018-12-20T20:40:31.690Z,76.60
2018-12-20T20:42:59.171Z,76.30
2018-12-20T20:45:27.593Z,76.30
2018-12-20T20:47:55.069Z,76.00
2018-12-20T20:50:22.859Z,76.00
2018-12-20T20:52:50.444Z,76.00
2018-12-20T20:55:18.007Z,75.90
2018-12-20T20:57:45.508Z,75.90
2018-12-20T21:00:12.995Z,75.70
2018-12-20T21:02:40.536Z,75.70
2018-12-20T21:05:08.051Z,75.80
2018-12-20T21:07:35.525Z,75.70
2018-12-20T21:10:03.512Z,75.70
2018-12-20T21:12:30.986Z,75.80
2018-12-20T21:14:58.461Z,75.80
2018-12-20T21:17:25.923Z,75.80
2018-12-20T21:19:53.416Z,75.90
2018-12-20T21:22:20.877Z,75.80
2018-12-20T21:24:48.365Z,75.80
2018-12-20T21:27:15.831Z,75.50
2018-12-20T21:29:43.305Z,75.60
2018-12-20T21:32:10.770Z,74.90
2018-12-20T21:34:38.264Z,75.30
2018-12-20T21:37:05.733Z,75.40
2018-12-20T21:39:33.211Z,75.20
2018-12-20T21:42:00.677Z,75.40
2018-12-20T21:44:28.166Z,75.30
2018-12-20T21:46:55.642Z,75.20
2018-12-20T21:49:23.103Z,75.30
2018-12-20T21:51:50.574Z,75.40
2018-12-20T21:54:18.046Z,75.20
2018-12-20T21:56:45.514Z,75.20
2018-12-20T21:59:12.995Z,75.20
2018-12-20T22:01:40.437Z,75.60
2018-12-20T22:04:07.881Z,75.20
2018-12-20T22:06:35.331Z,75.20
2018-12-20T22:09:04.108Z,75.20
2018-12-20T22:11:31.565Z,75.20
2018-12-20T22:13:59.035Z,75.00
2018-12-20T22:16:26.468Z,74.80
2018-12-20T22:18:53.928Z,75.10
2018-12-20T22:21:21.448Z,75.10
2018-12-20T22:23:48.985Z,75.00
2018-12-20T22:26:16.433Z,75.00
2018-12-20T22:28:43.863Z,75.00
2018-12-20T22:31:11.350Z,75.00
2018-12-20T22:33:38.803Z,75.10
2018-12-20T22:36:06.255Z,74.80
2018-12-20T22:38:34.823Z,74.90
2018-12-20T22:41:02.318Z,74.10
2018-12-20T22:43:29.896Z,74.70
2018-12-20T22:45:57.347Z,74.70
2018-12-20T22:48:24.832Z,75.40
2018-12-20T22:50:56.029Z,74.50
2018-12-20T22:53:21.826Z,74.50
2018-12-20T22:55:49.295Z,74.40
2018-12-20T22:58:16.775Z,74.30
2018-12-20T23:00:46.208Z,74.50
2018-12-20T23:03:13.666Z,74.70
2018-12-20T23:05:41.155Z,74.50
2018-12-20T23:08:08.635Z,74.80
2018-12-20T23:10:36.954Z,74.70
2018-12-20T23:13:04.434Z,74.80
2018-12-20T23:15:31.927Z,75.00
2018-12-20T23:17:59.403Z,74.80
2018-12-20T23:20:26.874Z,74.80
2018-12-20T23:22:54.364Z,75.00
2018-12-20T23:25:21.954Z,75.10
2018-12-20T23:27:49.527Z,75.40
2018-12-20T23:30:16.999Z,75.60
2018-12-20T23:32:44.512Z,75.90
2018-12-20T23:35:11.986Z,76.00
2018-12-20T23:37:39.468Z,76.40
2018-12-20T23:40:06.943Z,76.60
2018-12-20T23:42:34.418Z,76.70
2018-12-20T23:45:01.902Z,77.00
2018-12-20T23:47:29.373Z,77.00
2018-12-20T23:49:56.866Z,77.20
2018-12-20T23:52:24.438Z,78.10
2018-12-20T23:54:51.961Z,77.30
2018-12-20T23:57:19.456Z,77.20
2018-12-20T23:59:46.919Z,77.30
